Yakima, WA (98909)

10:17 AM PDT on August 25, 2016 (GMT -0700)
3 Miles West of Wiley City | | Change Station

Elev 1529 ft 46.54 °N, 120.71 °W | Updated 17 seconds ago

Clear
Clear
78.2 °F
Feels Like 77 °F
N
3.5
Wind Variable Wind from East
Gusts 3.5 mph

Today
High -- | Low -- °F
--% Chance of Precip.
Yesterday
High -- | Low -- °F
Precip. -- in
Pressure 30.12 in
Visibility 10.0 miles
Clouds Clear
Heat Index 77 °F
Dew Point 32 °F
Humidity 19%
Rainfall 0.00 in
Snow Depth Not available.
6:14 AM 7:53 PM
Last Quarter, 44% visible
METAR KYKM 251653Z 31008KT 10SM CLR 26/06 A3014 RMK AO2 SLP199 T02610061
Pressure 30.12 in
Visibility 10.0 miles
Clouds Clear
Heat Index 77 °F
Dew Point 32 °F
Humidity 19%
Rainfall 0.00 in
Snow Depth Not available.
6:14 AM 7:53 PM
Last Quarter, 44% visible
METAR KYKM 251653Z 31008KT 10SM CLR 26/06 A3014 RMK AO2 SLP199 T02610061

10-Day Weather Forecast

Almanac

Astronomy

Aug. 25, 2016 Rise Set
Actual Time
Civil Twilight
Nautical Twilight
Astronomical Twilight
Moon
Length of Visible Light
Length of Day
Tomorrow will be .
, % of the Moon is Illuminated

Today's Extremes

State Highs State Lows

Community

WunderPhotos

Upload Photos

1,934,877 photos uploaded!

WunderBlog® & News

Nearby

Air Quality

  Air Quality AQ Index Pollutant
Not available.

Snow Depth

Station Depth Elevation

Earthquake Activity

City Distance Mag. Time & Date
Minimum magnitude displayed is 2.5.

Coastal Water Temperatures

Place Temperature

Stations

Nearby Weather Stations

Station Location Temp. Windchill Dew Point Humidity Wind Precip. Elev Updated Type
                   

Watches & Warnings

There are currently no watches in effect.